sensor_id;sensor_type;location;lat;lon;timestamp;temperature;humidity
37356;DHT22;48747;50.250;18.848;2023-04-03T00:00:06;2.90;99.90
37356;DHT22;48747;50.250;18.848;2023-04-03T00:02:10;2.80;99.90
37356;DHT22;48747;50.250;18.848;2023-04-03T00:04:13;2.80;99.90
37356;DHT22;48747;50.250;18.848;2023-04-03T00:06:16;2.80;99.90
37356;DHT22;48747;50.250;18.848;2023-04-03T00:08:19;2.80;99.90
37356;DHT22;48747;50.250;18.848;2023-04-03T00:10:22;2.80;99.90
37356;DHT22;48747;50.250;18.848;2023-04-03T00:12:25;2.80;99.90
37356;DHT22;48747;50.250;18.848;2023-04-03T00:14:28;2.80;99.90
37356;DHT22;48747;50.250;18.848;2023-04-03T00:16:32;2.80;99.90
37356;DHT22;48747;50.250;18.848;2023-04-03T00:18:35;2.80;99.90
37356;DHT22;48747;50.250;18.848;2023-04-03T00:20:38;2.80;99.90
37356;DHT22;48747;50.250;18.848;2023-04-03T00:22:41;2.80;99.90
37356;DHT22;48747;50.250;18.848;2023-04-03T00:24:44;2.80;99.90
37356;DHT22;48747;50.250;18.848;2023-04-03T00:26:47;2.80;99.90
37356;DHT22;48747;50.250;18.848;2023-04-03T00:28:50;2.80;99.90
37356;DHT22;48747;50.250;18.848;2023-04-03T00:30:54;2.80;99.90
37356;DHT22;48747;50.250;18.848;2023-04-03T00:32:57;2.70;99.90
37356;DHT22;48747;50.250;18.848;2023-04-03T00:35:00;2.80;99.90
37356;DHT22;48747;50.250;18.848;2023-04-03T00:37:03;2.70;99.90
37356;DHT22;48747;50.250;18.848;2023-04-03T00:39:07;2.70;99.90
37356;DHT22;48747;50.250;18.848;2023-04-03T00:41:10;2.70;99.90
37356;DHT22;48747;50.250;18.848;2023-04-03T00:43:16;2.60;99.90
37356;DHT22;48747;50.250;18.848;2023-04-03T00:45:35;2.50;99.90
37356;DHT22;48747;50.250;18.848;2023-04-03T00:47:39;2.50;99.90
37356;DHT22;48747;50.250;18.848;2023-04-03T00:49:44;2.50;99.90
37356;DHT22;48747;50.250;18.848;2023-04-03T00:51:47;2.50;99.90
37356;DHT22;48747;50.250;18.848;2023-04-03T00:54:02;2.40;99.90
37356;DHT22;48747;50.250;18.848;2023-04-03T00:56:00;2.40;99.90
37356;DHT22;48747;50.250;18.848;2023-04-03T00:58:05;2.40;99.90
37356;DHT22;48747;50.250;18.848;2023-04-03T01:00:12;2.50;99.90
37356;DHT22;48747;50.250;18.848;2023-04-03T01:02:16;2.50;99.90
37356;DHT22;48747;50.250;18.848;2023-04-03T01:04:35;2.50;99.90
37356;DHT22;48747;50.250;18.848;2023-04-03T01:06:38;2.60;99.90
37356;DHT22;48747;50.250;18.848;2023-04-03T01:08:41;2.50;99.90
37356;DHT22;48747;50.250;18.848;2023-04-03T01:10:44;2.50;99.90
37356;DHT22;48747;50.250;18.848;2023-04-03T01:12:49;2.50;99.90
37356;DHT22;48747;50.250;18.848;2023-04-03T01:14:56;2.50;99.90
37356;DHT22;48747;50.250;18.848;2023-04-03T01:16:59;2.50;99.90
37356;DHT22;48747;50.250;18.848;2023-04-03T01:19:03;2.60;99.90
37356;DHT22;48747;50.250;18.848;2023-04-03T01:23:59;2.50;99.90
37356;DHT22;48747;50.250;18.848;2023-04-03T01:26:03;2.50;99.90
37356;DHT22;48747;50.250;18.848;2023-04-03T01:28:08;2.50;99.90
37356;DHT22;48747;50.250;18.848;2023-04-03T01:30:14;2.50;99.90
37356;DHT22;48747;50.250;18.848;2023-04-03T01:32:18;2.50;99.90
37356;DHT22;48747;50.250;18.848;2023-04-03T01:34:21;2.60;99.90
37356;DHT22;48747;50.250;18.848;2023-04-03T01:36:29;2.50;99.90
37356;DHT22;48747;50.250;18.848;2023-04-03T01:38:32;2.50;99.90
37356;DHT22;48747;50.250;18.848;2023-04-03T01:40:35;2.50;99.90
37356;DHT22;48747;50.250;18.848;2023-04-03T01:42:38;2.50;99.90
37356;DHT22;48747;50.250;18.848;2023-04-03T01:44:41;2.50;99.90
37356;DHT22;48747;50.250;18.848;2023-04-03T01:46:44;2.50;99.90
37356;DHT22;48747;50.250;18.848;2023-04-03T01:48:48;2.50;99.90
37356;DHT22;48747;50.250;18.848;2023-04-03T01:50:51;2.50;99.90
37356;DHT22;48747;50.250;18.848;2023-04-03T01:52:54;2.50;99.90
37356;DHT22;48747;50.250;18.848;2023-04-03T01:54:57;2.40;99.90
37356;DHT22;48747;50.250;18.848;2023-04-03T01:57:00;2.50;99.90
37356;DHT22;48747;50.250;18.848;2023-04-03T01:59:03;2.40;99.90
37356;DHT22;48747;50.250;18.848;2023-04-03T02:01:06;2.40;99.90
37356;DHT22;48747;50.250;18.848;2023-04-03T02:03:09;2.50;99.90
37356;DHT22;48747;50.250;18.848;2023-04-03T02:05:12;2.50;99.90
37356;DHT22;48747;50.250;18.848;2023-04-03T02:07:15;2.50;99.90
37356;DHT22;48747;50.250;18.848;2023-04-03T02:09:18;2.50;99.90
37356;DHT22;48747;50.250;18.848;2023-04-03T02:11:21;2.40;99.90
37356;DHT22;48747;50.250;18.848;2023-04-03T02:13:24;2.50;99.90
37356;DHT22;48747;50.250;18.848;2023-04-03T02:15:27;2.50;99.90
37356;DHT22;48747;50.250;18.848;2023-04-03T02:17:31;2.50;99.90
37356;DHT22;48747;50.250;18.848;2023-04-03T02:19:34;2.50;99.90
37356;DHT22;48747;50.250;18.848;2023-04-03T02:21:37;2.40;99.90
37356;DHT22;48747;50.250;18.848;2023-04-03T02:23:40;2.40;99.90
37356;DHT22;48747;50.250;18.848;2023-04-03T02:25:43;2.40;99.90
37356;DHT22;48747;50.250;18.848;2023-04-03T02:27:47;2.40;99.90
37356;DHT22;48747;50.250;18.848;2023-04-03T02:29:50;2.40;99.90
37356;DHT22;48747;50.250;18.848;2023-04-03T02:31:53;2.40;99.90
37356;DHT22;48747;50.250;18.848;2023-04-03T02:33:56;2.40;99.90
37356;DHT22;48747;50.250;18.848;2023-04-03T02:36:00;2.40;99.90
37356;DHT22;48747;50.250;18.848;2023-04-03T02:38:03;2.40;99.90
37356;DHT22;48747;50.250;18.848;2023-04-03T02:40:07;2.30;99.90
37356;DHT22;48747;50.250;18.848;2023-04-03T02:42:11;2.30;99.90
37356;DHT22;48747;50.250;18.848;2023-04-03T02:44:14;2.30;99.90
37356;DHT22;48747;50.250;18.848;2023-04-03T02:46:17;2.20;99.90
37356;DHT22;48747;50.250;18.848;2023-04-03T02:48:20;2.30;99.90
37356;DHT22;48747;50.250;18.848;2023-04-03T02:50:23;2.20;99.90
37356;DHT22;48747;50.250;18.848;2023-04-03T02:52:26;2.20;99.90
37356;DHT22;48747;50.250;18.848;2023-04-03T02:54:29;2.20;99.90
37356;DHT22;48747;50.250;18.848;2023-04-03T02:56:33;2.10;99.90
37356;DHT22;48747;50.250;18.848;2023-04-03T02:58:36;2.20;99.90
37356;DHT22;48747;50.250;18.848;2023-04-03T03:00:39;2.10;99.90
37356;DHT22;48747;50.250;18.848;2023-04-03T03:02:42;2.10;99.90
37356;DHT22;48747;50.250;18.848;2023-04-03T03:04:45;2.00;99.90
37356;DHT22;48747;50.250;18.848;2023-04-03T03:06:48;2.00;99.90
37356;DHT22;48747;50.250;18.848;2023-04-03T03:08:52;2.00;99.90
37356;DHT22;48747;50.250;18.848;2023-04-03T03:10:56;1.90;99.90
37356;DHT22;48747;50.250;18.848;2023-04-03T03:12:59;1.90;99.90
37356;DHT22;48747;50.250;18.848;2023-04-03T03:15:03;1.80;99.90
37356;DHT22;48747;50.250;18.848;2023-04-03T03:17:06;1.80;99.90
37356;DHT22;48747;50.250;18.848;2023-04-03T03:19:09;1.70;99.90
37356;DHT22;48747;50.250;18.848;2023-04-03T03:21:12;1.70;99.90
37356;DHT22;48747;50.250;18.848;2023-04-03T03:23:15;1.70;99.90
37356;DHT22;48747;50.250;18.848;2023-04-03T03:25:18;1.70;99.90
37356;DHT22;48747;50.250;18.848;2023-04-03T03:27:22;1.70;99.90
37356;DHT22;48747;50.250;18.848;2023-04-03T03:29:25;1.70;99.90
37356;DHT22;48747;50.250;18.848;2023-04-03T03:31:29;1.70;99.90
37356;DHT22;48747;50.250;18.848;2023-04-03T03:33:32;1.70;99.90
37356;DHT22;48747;50.250;18.848;2023-04-03T03:35:35;1.60;99.90
37356;DHT22;48747;50.250;18.848;2023-04-03T03:37:38;1.60;99.90
37356;DHT22;48747;50.250;18.848;2023-04-03T03:39:41;1.60;99.90
37356;DHT22;48747;50.250;18.848;2023-04-03T03:41:44;1.50;99.90
37356;DHT22;48747;50.250;18.848;2023-04-03T03:43:47;1.50;99.90
37356;DHT22;48747;50.250;18.848;2023-04-03T03:45:52;1.50;99.90
37356;DHT22;48747;50.250;18.848;2023-04-03T03:47:55;1.40;99.90
37356;DHT22;48747;50.250;18.848;2023-04-03T03:49:58;1.40;99.90
37356;DHT22;48747;50.250;18.848;2023-04-03T03:52:02;1.30;99.90
37356;DHT22;48747;50.250;18.848;2023-04-03T03:54:05;1.30;99.90
37356;DHT22;48747;50.250;18.848;2023-04-03T03:56:08;1.30;99.90
37356;DHT22;48747;50.250;18.848;2023-04-03T03:58:12;1.30;99.90
37356;DHT22;48747;50.250;18.848;2023-04-03T04:00:15;1.20;99.90
37356;DHT22;48747;50.250;18.848;2023-04-03T04:02:18;1.20;99.90
37356;DHT22;48747;50.250;18.848;2023-04-03T04:04:22;1.20;99.90
37356;DHT22;48747;50.250;18.848;2023-04-03T04:06:25;1.10;99.90
37356;DHT22;48747;50.250;18.848;2023-04-03T04:08:28;1.10;99.90
37356;DHT22;48747;50.250;18.848;2023-04-03T04:10:31;1.10;99.90
37356;DHT22;48747;50.250;18.848;2023-04-03T04:12:34;1.00;99.90
37356;DHT22;48747;50.250;18.848;2023-04-03T04:14:37;1.00;99.90
37356;DHT22;48747;50.250;18.848;2023-04-03T04:16:40;1.00;99.90
37356;DHT22;48747;50.250;18.848;2023-04-03T04:18:43;0.90;99.90
37356;DHT22;48747;50.250;18.848;2023-04-03T04:20:47;0.90;99.90
37356;DHT22;48747;50.250;18.848;2023-04-03T04:22:50;0.90;99.90
37356;DHT22;48747;50.250;18.848;2023-04-03T04:24:53;0.90;99.90
37356;DHT22;48747;50.250;18.848;2023-04-03T04:26:56;0.80;99.90
37356;DHT22;48747;50.250;18.848;2023-04-03T04:28:59;0.80;99.90
37356;DHT22;48747;50.250;18.848;2023-04-03T04:31:02;0.80;99.90
37356;DHT22;48747;50.250;18.848;2023-04-03T04:33:05;0.80;99.90
37356;DHT22;48747;50.250;18.848;2023-04-03T04:35:09;0.80;99.90
37356;DHT22;48747;50.250;18.848;2023-04-03T04:37:12;0.70;99.90
37356;DHT22;48747;50.250;18.848;2023-04-03T04:39:15;0.70;99.90
37356;DHT22;48747;50.250;18.848;2023-04-03T04:41:19;0.70;99.90
37356;DHT22;48747;50.250;18.848;2023-04-03T04:43:24;0.70;99.90
37356;DHT22;48747;50.250;18.848;2023-04-03T04:45:27;0.70;99.90
37356;DHT22;48747;50.250;18.848;2023-04-03T04:47:30;0.70;99.90
37356;DHT22;48747;50.250;18.848;2023-04-03T04:49:33;0.70;99.90
37356;DHT22;48747;50.250;18.848;2023-04-03T04:51:36;0.70;99.90
37356;DHT22;48747;50.250;18.848;2023-04-03T04:53:39;0.70;99.90
37356;DHT22;48747;50.250;18.848;2023-04-03T04:55:42;0.70;99.90
37356;DHT22;48747;50.250;18.848;2023-04-03T04:57:45;0.70;99.90
37356;DHT22;48747;50.250;18.848;2023-04-03T04:59:48;0.70;99.90
37356;DHT22;48747;50.250;18.848;2023-04-03T05:01:51;0.80;99.90
37356;DHT22;48747;50.250;18.848;2023-04-03T05:03:54;0.70;99.90
37356;DHT22;48747;50.250;18.848;2023-04-03T05:05:58;0.70;99.90
37356;DHT22;48747;50.250;18.848;2023-04-03T05:08:02;0.70;99.90
37356;DHT22;48747;50.250;18.848;2023-04-03T05:10:06;0.70;99.90
37356;DHT22;48747;50.250;18.848;2023-04-03T05:12:09;0.70;99.90
37356;DHT22;48747;50.250;18.848;2023-04-03T05:14:12;0.60;99.90
37356;DHT22;48747;50.250;18.848;2023-04-03T05:16:15;0.60;99.90
37356;DHT22;48747;50.250;18.848;2023-04-03T05:18:18;0.60;99.90
37356;DHT22;48747;50.250;18.848;2023-04-03T05:20:21;0.50;99.90
37356;DHT22;48747;50.250;18.848;2023-04-03T05:22:24;0.60;99.90
37356;DHT22;48747;50.250;18.848;2023-04-03T05:24:27;0.60;99.90
37356;DHT22;48747;50.250;18.848;2023-04-03T05:26:31;0.50;99.90
37356;DHT22;48747;50.250;18.848;2023-04-03T05:28:34;0.50;99.90
37356;DHT22;48747;50.250;18.848;2023-04-03T05:30:38;0.50;99.90
37356;DHT22;48747;50.250;18.848;2023-04-03T05:32:41;0.50;99.90
37356;DHT22;48747;50.250;18.848;2023-04-03T05:34:44;0.50;99.90
37356;DHT22;48747;50.250;18.848;2023-04-03T05:36:47;0.40;99.90
37356;DHT22;48747;50.250;18.848;2023-04-03T05:38:50;0.40;99.90
37356;DHT22;48747;50.250;18.848;2023-04-03T05:40:53;0.40;99.90
37356;DHT22;48747;50.250;18.848;2023-04-03T05:42:56;0.50;99.90
37356;DHT22;48747;50.250;18.848;2023-04-03T05:44:59;0.50;99.90
37356;DHT22;48747;50.250;18.848;2023-04-03T05:47:02;0.40;99.90
37356;DHT22;48747;50.250;18.848;2023-04-03T05:49:06;0.40;99.90
37356;DHT22;48747;50.250;18.848;2023-04-03T05:51:25;0.50;99.90
37356;DHT22;48747;50.250;18.848;2023-04-03T05:53:27;0.50;99.90
37356;DHT22;48747;50.250;18.848;2023-04-03T05:55:30;0.50;99.90
37356;DHT22;48747;50.250;18.848;2023-04-03T05:57:33;0.50;99.90
37356;DHT22;48747;50.250;18.848;2023-04-03T05:59:36;0.50;99.90
37356;DHT22;48747;50.250;18.848;2023-04-03T06:01:39;0.50;99.90
37356;DHT22;48747;50.250;18.848;2023-04-03T06:03:42;0.40;99.90
37356;DHT22;48747;50.250;18.848;2023-04-03T06:05:45;0.50;99.90
37356;DHT22;48747;50.250;18.848;2023-04-03T06:07:48;0.50;99.90
37356;DHT22;48747;50.250;18.848;2023-04-03T06:09:51;0.50;99.90
37356;DHT22;48747;50.250;18.848;2023-04-03T06:11:55;0.50;99.90
37356;DHT22;48747;50.250;18.848;2023-04-03T06:14:00;0.60;99.90
37356;DHT22;48747;50.250;18.848;2023-04-03T06:16:04;0.70;99.90
37356;DHT22;48747;50.250;18.848;2023-04-03T06:18:07;0.70;99.90
37356;DHT22;48747;50.250;18.848;2023-04-03T06:20:11;0.70;99.90
37356;DHT22;48747;50.250;18.848;2023-04-03T06:22:14;0.80;99.90
37356;DHT22;48747;50.250;18.848;2023-04-03T06:24:18;0.80;99.90
37356;DHT22;48747;50.250;18.848;2023-04-03T06:26:23;0.80;99.90
37356;DHT22;48747;50.250;18.848;2023-04-03T06:28:26;0.80;99.90
37356;DHT22;48747;50.250;18.848;2023-04-03T06:30:29;0.70;99.90
37356;DHT22;48747;50.250;18.848;2023-04-03T06:32:32;0.70;99.90
37356;DHT22;48747;50.250;18.848;2023-04-03T06:34:36;0.60;99.90
37356;DHT22;48747;50.250;18.848;2023-04-03T06:36:39;0.60;99.90
37356;DHT22;48747;50.250;18.848;2023-04-03T06:38:43;0.60;99.90
37356;DHT22;48747;50.250;18.848;2023-04-03T06:40:46;0.70;99.90
37356;DHT22;48747;50.250;18.848;2023-04-03T06:42:49;0.80;99.90
37356;DHT22;48747;50.250;18.848;2023-04-03T06:44:52;0.80;99.90
37356;DHT22;48747;50.250;18.848;2023-04-03T06:46:55;0.80;99.90
37356;DHT22;48747;50.250;18.848;2023-04-03T06:48:58;0.80;99.90
37356;DHT22;48747;50.250;18.848;2023-04-03T06:51:02;0.80;99.90
37356;DHT22;48747;50.250;18.848;2023-04-03T06:53:05;0.70;99.90
37356;DHT22;48747;50.250;18.848;2023-04-03T06:55:09;0.80;99.90
37356;DHT22;48747;50.250;18.848;2023-04-03T06:57:12;0.70;99.90
37356;DHT22;48747;50.250;18.848;2023-04-03T06:59:15;0.70;99.90
37356;DHT22;48747;50.250;18.848;2023-04-03T07:01:19;0.80;99.90
37356;DHT22;48747;50.250;18.848;2023-04-03T07:03:22;0.80;99.90
37356;DHT22;48747;50.250;18.848;2023-04-03T07:05:25;0.80;99.90
37356;DHT22;48747;50.250;18.848;2023-04-03T07:07:29;0.80;99.90
37356;DHT22;48747;50.250;18.848;2023-04-03T07:09:32;0.80;99.90
37356;DHT22;48747;50.250;18.848;2023-04-03T07:11:36;0.70;99.90
37356;DHT22;48747;50.250;18.848;2023-04-03T07:13:39;0.70;99.90
37356;DHT22;48747;50.250;18.848;2023-04-03T07:15:42;0.70;99.90
37356;DHT22;48747;50.250;18.848;2023-04-03T07:17:46;0.70;99.90
37356;DHT22;48747;50.250;18.848;2023-04-03T07:19:49;0.80;99.90
37356;DHT22;48747;50.250;18.848;2023-04-03T07:21:52;0.80;99.90
37356;DHT22;48747;50.250;18.848;2023-04-03T07:23:55;0.90;99.90
37356;DHT22;48747;50.250;18.848;2023-04-03T07:25:58;1.00;99.90
37356;DHT22;48747;50.250;18.848;2023-04-03T07:28:01;1.10;99.90
37356;DHT22;48747;50.250;18.848;2023-04-03T07:30:05;1.10;99.90
37356;DHT22;48747;50.250;18.848;2023-04-03T07:32:08;1.20;99.90
37356;DHT22;48747;50.250;18.848;2023-04-03T07:34:11;1.40;99.90
37356;DHT22;48747;50.250;18.848;2023-04-03T07:36:17;1.50;99.90
37356;DHT22;48747;50.250;18.848;2023-04-03T07:38:20;1.70;99.90
37356;DHT22;48747;50.250;18.848;2023-04-03T07:40:23;1.70;99.90
37356;DHT22;48747;50.250;18.848;2023-04-03T07:42:27;1.80;99.90
37356;DHT22;48747;50.250;18.848;2023-04-03T07:44:30;1.80;99.90
37356;DHT22;48747;50.250;18.848;2023-04-03T07:46:34;1.90;99.90
37356;DHT22;48747;50.250;18.848;2023-04-03T07:48:37;2.00;99.90
37356;DHT22;48747;50.250;18.848;2023-04-03T07:50:41;2.20;99.90
37356;DHT22;48747;50.250;18.848;2023-04-03T07:52:44;2.40;99.90
37356;DHT22;48747;50.250;18.848;2023-04-03T07:54:47;2.50;99.90
37356;DHT22;48747;50.250;18.848;2023-04-03T07:56:50;2.50;99.90
37356;DHT22;48747;50.250;18.848;2023-04-03T07:58:53;2.50;99.90
37356;DHT22;48747;50.250;18.848;2023-04-03T08:00:56;2.60;99.90
37356;DHT22;48747;50.250;18.848;2023-04-03T08:02:59;2.60;99.90
37356;DHT22;48747;50.250;18.848;2023-04-03T08:05:03;2.70;99.90
37356;DHT22;48747;50.250;18.848;2023-04-03T08:07:07;2.50;97.50
37356;DHT22;48747;50.250;18.848;2023-04-03T08:09:10;2.30;97.60
37356;DHT22;48747;50.250;18.848;2023-04-03T08:11:13;2.30;99.20
37356;DHT22;48747;50.250;18.848;2023-04-03T08:13:17;2.20;94.60
37356;DHT22;48747;50.250;18.848;2023-04-03T08:15:20;2.10;93.90
37356;DHT22;48747;50.250;18.848;2023-04-03T08:17:23;2.10;94.00
37356;DHT22;48747;50.250;18.848;2023-04-03T08:19:27;2.10;93.00
37356;DHT22;48747;50.250;18.848;2023-04-03T08:21:30;2.00;94.00
37356;DHT22;48747;50.250;18.848;2023-04-03T08:23:33;2.10;95.90
37356;DHT22;48747;50.250;18.848;2023-04-03T08:25:42;2.20;95.50
37356;DHT22;48747;50.250;18.848;2023-04-03T08:27:45;2.20;94.90
37356;DHT22;48747;50.250;18.848;2023-04-03T08:29:48;2.20;92.70
37356;DHT22;48747;50.250;18.848;2023-04-03T08:31:52;2.20;92.20
37356;DHT22;48747;50.250;18.848;2023-04-03T08:33:57;2.30;90.30
37356;DHT22;48747;50.250;18.848;2023-04-03T08:36:00;2.20;88.30
37356;DHT22;48747;50.250;18.848;2023-04-03T08:38:03;2.10;87.90
37356;DHT22;48747;50.250;18.848;2023-04-03T08:40:10;2.10;88.70
37356;DHT22;48747;50.250;18.848;2023-04-03T08:42:30;2.20;89.10
37356;DHT22;48747;50.250;18.848;2023-04-03T08:49:01;2.80;83.10
37356;DHT22;48747;50.250;18.848;2023-04-03T08:51:14;3.20;83.80
37356;DHT22;48747;50.250;18.848;2023-04-03T08:53:19;3.50;81.10
37356;DHT22;48747;50.250;18.848;2023-04-03T08:55:31;3.70;76.60
37356;DHT22;48747;50.250;18.848;2023-04-03T08:57:39;3.50;74.00
37356;DHT22;48747;50.250;18.848;2023-04-03T08:59:41;3.50;72.90
37356;DHT22;48747;50.250;18.848;2023-04-03T09:01:44;3.40;71.90
37356;DHT22;48747;50.250;18.848;2023-04-03T09:03:47;3.40;71.00
37356;DHT22;48747;50.250;18.848;2023-04-03T09:08:29;3.70;69.80
37356;DHT22;48747;50.250;18.848;2023-04-03T09:10:35;3.70;70.00
37356;DHT22;48747;50.250;18.848;2023-04-03T09:12:48;4.00;72.90
37356;DHT22;48747;50.250;18.848;2023-04-03T09:15:09;4.20;71.60
37356;DHT22;48747;50.250;18.848;2023-04-03T09:21:38;4.70;65.40
37356;DHT22;48747;50.250;18.848;2023-04-03T09:25:52;5.00;68.60
37356;DHT22;48747;50.250;18.848;2023-04-03T09:27:56;5.10;68.20
37356;DHT22;48747;50.250;18.848;2023-04-03T09:30:00;5.00;66.40
37356;DHT22;48747;50.250;18.848;2023-04-03T09:32:14;4.80;65.10
37356;DHT22;48747;50.250;18.848;2023-04-03T09:34:23;4.60;66.20
37356;DHT22;48747;50.250;18.848;2023-04-03T09:36:45;4.60;64.40
37356;DHT22;48747;50.250;18.848;2023-04-03T09:39:14;4.50;63.00
37356;DHT22;48747;50.250;18.848;2023-04-03T09:41:16;4.30;63.20
37356;DHT22;48747;50.250;18.848;2023-04-03T09:43:22;4.40;65.80
37356;DHT22;48747;50.250;18.848;2023-04-03T09:45:34;4.20;62.10
37356;DHT22;48747;50.250;18.848;2023-04-03T09:47:38;4.40;64.90
37356;DHT22;48747;50.250;18.848;2023-04-03T09:49:41;4.50;62.70
37356;DHT22;48747;50.250;18.848;2023-04-03T09:51:44;4.70;64.00
37356;DHT22;48747;50.250;18.848;2023-04-03T09:53:47;4.70;63.20
37356;DHT22;48747;50.250;18.848;2023-04-03T09:55:51;4.70;64.80
37356;DHT22;48747;50.250;18.848;2023-04-03T09:57:59;4.50;66.20
37356;DHT22;48747;50.250;18.848;2023-04-03T10:00:04;4.30;67.10
37356;DHT22;48747;50.250;18.848;2023-04-03T10:02:23;4.20;64.90
37356;DHT22;48747;50.250;18.848;2023-04-03T10:04:26;4.00;61.80
37356;DHT22;48747;50.250;18.848;2023-04-03T10:06:33;4.20;63.60
37356;DHT22;48747;50.250;18.848;2023-04-03T10:08:37;4.30;62.50
37356;DHT22;48747;50.250;18.848;2023-04-03T10:10:44;4.50;64.40
37356;DHT22;48747;50.250;18.848;2023-04-03T10:13:02;4.80;64.70
37356;DHT22;48747;50.250;18.848;2023-04-03T10:15:02;4.80;59.70
37356;DHT22;48747;50.250;18.848;2023-04-03T10:21:59;4.80;61.60
37356;DHT22;48747;50.250;18.848;2023-04-03T10:24:11;4.80;59.60
37356;DHT22;48747;50.250;18.848;2023-04-03T10:29:40;4.90;61.40
37356;DHT22;48747;50.250;18.848;2023-04-03T10:31:04;5.00;61.20
37356;DHT22;48747;50.250;18.848;2023-04-03T10:43:08;5.40;60.10
37356;DHT22;48747;50.250;18.848;2023-04-03T10:52:28;5.20;62.50
37356;DHT22;48747;50.250;18.848;2023-04-03T10:54:37;5.00;64.10
37356;DHT22;48747;50.250;18.848;2023-04-03T10:58:48;4.90;63.70
37356;DHT22;48747;50.250;18.848;2023-04-03T11:00:50;5.00;64.10
37356;DHT22;48747;50.250;18.848;2023-04-03T11:03:04;5.20;63.80
37356;DHT22;48747;50.250;18.848;2023-04-03T11:07:24;5.70;61.60
37356;DHT22;48747;50.250;18.848;2023-04-03T11:09:37;5.90;63.00
37356;DHT22;48747;50.250;18.848;2023-04-03T11:11:42;5.90;57.10
37356;DHT22;48747;50.250;18.848;2023-04-03T11:15:58;5.60;56.30
37356;DHT22;48747;50.250;18.848;2023-04-03T11:18:14;5.50;55.70
37356;DHT22;48747;50.250;18.848;2023-04-03T11:24:42;4.60;56.10
37356;DHT22;48747;50.250;18.848;2023-04-03T11:26:46;4.40;55.90
37356;DHT22;48747;50.250;18.848;2023-04-03T11:28:58;4.40;57.10
37356;DHT22;48747;50.250;18.848;2023-04-03T11:35:44;5.50;55.60
37356;DHT22;48747;50.250;18.848;2023-04-03T11:37:50;5.70;54.90
37356;DHT22;48747;50.250;18.848;2023-04-03T11:39:56;5.70;57.70
37356;DHT22;48747;50.250;18.848;2023-04-03T11:44:35;5.70;55.70
37356;DHT22;48747;50.250;18.848;2023-04-03T11:47:01;5.60;56.30
37356;DHT22;48747;50.250;18.848;2023-04-03T11:49:00;5.50;55.70
37356;DHT22;48747;50.250;18.848;2023-04-03T11:53:35;5.30;57.10
37356;DHT22;48747;50.250;18.848;2023-04-03T12:02:37;6.10;55.30
37356;DHT22;48747;50.250;18.848;2023-04-03T12:04:42;6.40;54.10
37356;DHT22;48747;50.250;18.848;2023-04-03T12:08:54;6.30;52.50
37356;DHT22;48747;50.250;18.848;2023-04-03T12:11:19;6.60;55.20
37356;DHT22;48747;50.250;18.848;2023-04-03T12:13:19;6.80;55.50
37356;DHT22;48747;50.250;18.848;2023-04-03T12:15:42;6.80;51.70
37356;DHT22;48747;50.250;18.848;2023-04-03T12:17:31;6.40;51.60
37356;DHT22;48747;50.250;18.848;2023-04-03T12:19:36;6.20;53.00
37356;DHT22;48747;50.250;18.848;2023-04-03T12:24:23;6.20;54.40
37356;DHT22;48747;50.250;18.848;2023-04-03T12:26:20;6.30;54.40
37356;DHT22;48747;50.250;18.848;2023-04-03T12:28:24;6.30;54.40
37356;DHT22;48747;50.250;18.848;2023-04-03T12:30:30;6.10;53.70
37356;DHT22;48747;50.250;18.848;2023-04-03T12:32:48;5.80;54.10
37356;DHT22;48747;50.250;18.848;2023-04-03T12:37:39;6.00;56.00
37356;DHT22;48747;50.250;18.848;2023-04-03T12:39:58;6.00;56.70
37356;DHT22;48747;50.250;18.848;2023-04-03T12:46:21;5.50;53.70
37356;DHT22;48747;50.250;18.848;2023-04-03T12:48:27;5.80;55.40
37356;DHT22;48747;50.250;18.848;2023-04-03T12:50:32;6.20;51.90
37356;DHT22;48747;50.250;18.848;2023-04-03T12:52:44;6.60;51.80
37356;DHT22;48747;50.250;18.848;2023-04-03T12:54:47;6.70;50.20
37356;DHT22;48747;50.250;18.848;2023-04-03T12:56:51;6.40;51.10
37356;DHT22;48747;50.250;18.848;2023-04-03T12:59:12;5.90;51.30
37356;DHT22;48747;50.250;18.848;2023-04-03T13:01:03;5.70;52.40
37356;DHT22;48747;50.250;18.848;2023-04-03T13:03:30;5.70;52.80
37356;DHT22;48747;50.250;18.848;2023-04-03T13:05:19;5.80;53.40
37356;DHT22;48747;50.250;18.848;2023-04-03T13:09:33;6.30;51.30
37356;DHT22;48747;50.250;18.848;2023-04-03T13:11:38;6.40;51.70
37356;DHT22;48747;50.250;18.848;2023-04-03T13:13:54;6.60;52.70
37356;DHT22;48747;50.250;18.848;2023-04-03T13:15:57;6.80;50.80
37356;DHT22;48747;50.250;18.848;2023-04-03T13:18:01;6.70;49.00
37356;DHT22;48747;50.250;18.848;2023-04-03T13:20:26;6.40;49.50
37356;DHT22;48747;50.250;18.848;2023-04-03T13:22:33;6.00;48.30
37356;DHT22;48747;50.250;18.848;2023-04-03T13:24:36;5.70;47.70
37356;DHT22;48747;50.250;18.848;2023-04-03T13:26:40;5.90;48.30
37356;DHT22;48747;50.250;18.848;2023-04-03T13:28:44;6.20;49.30
37356;DHT22;48747;50.250;18.848;2023-04-03T13:30:58;6.70;49.40
37356;DHT22;48747;50.250;18.848;2023-04-03T13:33:03;7.10;49.70
37356;DHT22;48747;50.250;18.848;2023-04-03T13:35:29;7.00;48.00
37356;DHT22;48747;50.250;18.848;2023-04-03T13:37:30;6.60;48.40
37356;DHT22;48747;50.250;18.848;2023-04-03T13:39:36;6.20;49.80
37356;DHT22;48747;50.250;18.848;2023-04-03T13:41:43;6.00;50.90
37356;DHT22;48747;50.250;18.848;2023-04-03T13:43:46;5.80;51.60
37356;DHT22;48747;50.250;18.848;2023-04-03T13:46:22;5.80;52.60
37356;DHT22;48747;50.250;18.848;2023-04-03T13:48:18;6.10;51.40
37356;DHT22;48747;50.250;18.848;2023-04-03T13:50:25;6.30;51.60
37356;DHT22;48747;50.250;18.848;2023-04-03T13:52:33;6.10;49.20
37356;DHT22;48747;50.250;18.848;2023-04-03T13:54:39;5.80;50.20
37356;DHT22;48747;50.250;18.848;2023-04-03T13:56:42;5.60;49.90
37356;DHT22;48747;50.250;18.848;2023-04-03T14:01:19;5.80;50.90
37356;DHT22;48747;50.250;18.848;2023-04-03T14:05:32;5.90;51.90
37356;DHT22;48747;50.250;18.848;2023-04-03T14:07:35;5.90;52.90
37356;DHT22;48747;50.250;18.848;2023-04-03T14:09:39;5.80;51.50
37356;DHT22;48747;50.250;18.848;2023-04-03T14:11:43;5.70;50.70
37356;DHT22;48747;50.250;18.848;2023-04-03T14:13:47;5.50;52.30
37356;DHT22;48747;50.250;18.848;2023-04-03T14:15:52;5.50;52.20
37356;DHT22;48747;50.250;18.848;2023-04-03T14:17:55;5.60;51.80
37356;DHT22;48747;50.250;18.848;2023-04-03T14:19:59;5.80;52.60
37356;DHT22;48747;50.250;18.848;2023-04-03T14:22:15;5.80;51.70
37356;DHT22;48747;50.250;18.848;2023-04-03T14:24:18;5.60;51.80
37356;DHT22;48747;50.250;18.848;2023-04-03T14:26:23;5.40;51.90
37356;DHT22;48747;50.250;18.848;2023-04-03T14:28:28;5.40;52.70
37356;DHT22;48747;50.250;18.848;2023-04-03T14:30:33;5.60;52.40
37356;DHT22;48747;50.250;18.848;2023-04-03T14:32:39;5.80;53.50
37356;DHT22;48747;50.250;18.848;2023-04-03T14:34:43;5.60;52.60